Bruno Alves

Chief Scout - Criciuma
19 Aug 2027
Thursday
Process

Personality

Adaptability (20) Ambition (4) Controversy (11) Loyalty (13) Pressure (10) Professionalism (5) Sportsmanship (11) Temperament (4)

Profile

Coaching Style Democratic
License National B
Determination 6
Man Management 10
Motivating 8
Discipline 7
Job Satisfaction
100%
Fatigue
0%
Role Chief Scout
Wage 61.6K p/w
Contract 14.03.2028

Performance

Behaviour Good
Training Effectiveness
24%
Player Development
50%
Injury Prevention
50%
Tactical Implementation
20%

Recent Events

Attended a recruitment meeting now
Recommended a transfer target now
Recommended a transfer target now
Recommended a transfer target now
Recommended a transfer target now
Attended a recruitment meeting now
Attended a recruitment meeting 7d ago
Attended a recruitment meeting 7d ago

Currently Monitoring

188
Player Club Status Ability Confidence Watched Last Observed Latest Vote
Riquelme Grêmio Active 91 / 112 72% 1 14.06.2027 Approve
Dion Beljo Standard Liege Active 131 / 132 66% 1 01.06.2027 Approve
Markus Jensen Nacional Active 116 / 114 40% 5 31.05.2027 -
Yussif Saidu Zaragoza Active 132 / 122 40% 2 31.05.2027 -
Francisco Fernandes Porto Active 79 / 106 40% 2 31.05.2027 -
Iwan Morgan Grimsby Town Active 119 / 124 40% 8 30.05.2027 -
Federico Serra Arezzo Active 81 / 83 40% 4 28.05.2027 -
Paco Esteban Virtus Entella Active 91 / 97 40% 3 28.05.2027 -
Hassan Beja AFC Leopards Active 97 / 99 40% 1 28.05.2027 -
Fletcher Holman Swindon Town Active 82 / 91 40% 5 25.05.2027 -
Dilan Neves Benfica Active 83 / 98 40% 6 25.05.2027 -
Tiziano Dornell Danubio Active 115 / 126 40% 3 20.05.2027 -
Gustavo Ferreira Benfica Active 82 / 91 40% 6 19.05.2027 -
Matvii Ponomarenko Dynamo Kyiv Active 115 / 105 40% 5 18.05.2027 -
Sidiki Chérif Coventry City Active 129 / 139 40% 8 16.05.2027 -
Leo Castledine Middlesbrough Active 123 / 139 40% 4 16.05.2027 -
Darlvin Yeboah Bechem United Active 88 / 81 40% 7 15.05.2027 -
Víctor Guzmán Sporting CP Active 102 / 93 40% 6 13.05.2027 -
Manuel Simões Sporting CP Active 71 / 80 40% 1 13.05.2027 -
Borna Knezović Casarano Active 93 / 110 40% 2 09.05.2027 -
Chineme Chinonso Ikorodu City Active 87 / 93 40% 3 08.05.2027 -
Octávio Silva Artigas Active 85 / 78 40% 1 06.05.2027 -
Lorenzo De Leo Renate Active 94 / 116 40% 4 05.05.2027 -
Ben Ahmed Kohili Paradou Active 94 / 120 40% 5 03.05.2027 -
Rayan Bournemouth Active 145 / 148 40% 3 03.05.2027 -
Gabriel Melo Dugopolje Active 93 / 83 40% 2 02.05.2027 -
Hazeem Bakre Crawley Town Active 85 / 89 40% 7 02.05.2027 -
Amaury Morales Pumas UNAM Active 117 / 131 40% 4 01.05.2027 -
Zaïd BafdilI Sporting CP Active 89 / 95 40% 4 01.05.2027 -
Eduardo Fernandes Benfica Active 106 / 111 40% 2 01.05.2027 -
Chinonso Chibueze Harrogate Town Active 69 / 92 40% 1 01.05.2027 -
Luke Baartman ES Mostaganem Active 106 / 114 40% 5 29.04.2027 -
Alagie Wally Veres Active 80 / 87 40% 1 29.04.2027 -
Mateus Mané Manchester United Active 126 / 156 40% 3 28.04.2027 -
Martim Cunha Porto Active 108 / 125 40% 3 27.04.2027 -
Monty Batlhabane Polokwane City Active 90 / 84 40% 1 27.04.2027 -
Baba N'Diaye Chelyabinsk Active 80 / 89 40% 2 26.04.2027 -
Toni Tamarit Alverca Active 112 / 128 40% 8 24.04.2027 -
Godbless Ayeke AS Korofina Active 79 / 70 40% 2 24.04.2027 -
Mathis Jangeal Famalicao Active 107 / 98 40% 8 23.04.2027 -
Jofre Torrents Ajax Active 114 / 141 40% 1 23.04.2027 Needs More Info
Thulani Erasmus Platinum Stars Active 101 / 120 40% 2 21.04.2027 -
Umar Abubakar Famalicao Active 95 / 81 40% 2 21.04.2027 -
Njabulo Hlongwane Binga Active 75 / 73 40% 1 21.04.2027 -
Dramane Kamagaté USM Alger Active 103 / 127 40% 2 19.04.2027 -
Kelian Baruti Liamba Estoril Praia Active 89 / 114 40% 4 18.04.2027 -
Leandro Martins Benfica Active 103 / 97 40% 2 18.04.2027 -
Michael Noumon Heart of Lions Active 74 / 74 40% 3 14.04.2027 -
Jonás Luna Santa Clara Active 116 / 113 40% 5 12.04.2027 -
Ethan Williams Peterborough United Active 113 / 107 40% 1 11.04.2027 -
Vasco Santos Oliveirense Active 94 / 110 40% 1 11.04.2027 -
David Kalokoh Ajax Active 116 / 135 40% 3 09.04.2027 -
Salvador Blopá Casa Pia Active 117 / 131 40% 1 06.04.2027 -
Daniel Costa Sporting CP Active 92 / 86 40% 1 06.04.2027 -
Wendell Livyi Bereh Active 87 / 113 40% 1 05.04.2027 -
Williams Furman Black Aces Active 65 / 73 40% 3 03.04.2027 -
Lwanda Mbanjwa Maritzburg United Active 84 / 91 40% 2 03.04.2027 -
Jovan Milošević Braga Active 126 / 134 40% 6 03.04.2027 -
Ernie Weaver AFC Wimbledon Active 105 / 118 40% 2 03.04.2027 -
Keagan Tau Ajax Cape Town Active 90 / 114 40% 1 03.04.2027 -
Arthur Maron São Paulo Active 89 / 101 40% 2 31.03.2027 -
Fuzy Taylor Medeama Active 73 / 91 40% 1 29.03.2027 -
José Pachuca Puebla Active 116 / 123 40% 2 26.03.2027 -
Josh Smith Accrington Stanley Active 85 / 92 40% 1 26.03.2027 -
Rayhan Momade Sporting CP Active 100 / 113 40% 1 26.03.2027 -
Dom Ballard Leyton Orient Active 123 / 130 40% 4 24.03.2027 -
Afonso Assis Moreirense Active 112 / 115 40% 1 21.03.2027 -
Bastien Meupiyou Alverca Active 116 / 109 40% 2 19.03.2027 -
Joaquin Seys Club Brugge Active 126 / 119 40% 1 19.03.2027 -
Gonçalo Oliveira Benfica Active 115 / 114 40% 1 17.03.2027 -
João Capucho Benfica Active 102 / 102 40% 1 15.03.2027 -
Dylan Lawlor Cardiff City Active 123 / 122 40% 1 15.03.2027 -
Sule John US Forces Armees Active 79 / 85 40% 2 12.03.2027 -
Matvey Kislyak CSKA Moscow Active 130 / 139 40% 2 11.03.2027 -
Percy Jali Free State Stars Active 86 / 104 40% 1 11.03.2027 -
Matías Gómez Granada Active 114 / 106 40% 1 11.03.2027 Needs More Info
João Teixeira Porto Active 99 / 117 40% 1 08.03.2027 -
Zane Albarus Cambridge United Active 99 / 107 40% 1 08.03.2027 -
Deivid Washington RC Strasbourg Active 116 / 134 40% 5 06.03.2027 -
Daniel Vernattus Metalist Active 83 / 105 40% 1 05.03.2027 -
Thomas Waddingham Portsmouth Active 112 / 109 40% 1 03.03.2027 -
Will Lankshear Middlesbrough Active 118 / 124 40% 1 27.02.2027 -
Rudi Almeida Famalicao Active 85 / 81 40% 3 19.02.2027 -
Nordan Mukiele Stade Rennais Active 88 / 103 40% 1 16.02.2027 -
Lévy Néne FC Nordsjaelland Active 114 / 111 40% 1 13.02.2027 -
Ognjen Bondžulić Mladost Lucani Active 96 / 98 40% 1 13.02.2027 -
Léo Jacó Santa Clara Active 101 / 102 40% 1 05.02.2027 -
Francis Sulemana BA All Stars Active 78 / 83 40% 1 05.02.2027 -
Lucas Høgsberg RC Strasbourg Active 126 / 150 40% 1 07.01.2027 -
Sabil Hansen Randers Active 117 / 118 40% 1 07.01.2027 -
Vinícius Lopes Santa Clara Active 119 / 131 40% 3 16.12.2026 -
Dinis Pinto Moreirense Active 122 / 147 40% 1 16.12.2026 -
Amar Memić Casa Pia Active 127 / 128 62% 1 01.12.2026 Approve
Andreas Trimmel Red Bull Salzburg Active 131 / 131 60% 1 01.12.2026 Approve
Kévin Zohi Torreense Active 117 / 103 40% 2 29.11.2026 -
Peter Shalulile Mamelodi Sundowns Active 136 / 111 40% 3 29.11.2026 Monitor
Yousef Salech Cardiff City Active 126 / 125 40% 1 29.11.2026 -
Oli McBurnie Hull City Active 123 / 149 40% 3 28.11.2026 -
Juninho Pumas UNAM Active 134 / 119 40% 4 28.11.2026 -
Elijah Adebayo Luton Town Active 112 / 108 40% 1 28.11.2026 -
Zé Leite Leixões Active 108 / 115 40% 4 27.11.2026 -
André Silva Tondela Active 124 / 144 40% 1 27.11.2026 -
Negueba Mirassol Active 125 / 110 40% 3 25.11.2026 -
Dawda Camara Alverca Active 124 / 136 40% 6 25.11.2026 -
Lewis Morgan SuperSport United Active 123 / 142 40% 3 24.11.2026 Monitor
Yassin Fortuné Vizela Active 112 / 97 40% 1 24.11.2026 -
Juan Muñoz Leiria Active 134 / 120 40% 5 19.11.2026 -
Pablo Ruan Nacional Active 112 / 110 40% 2 18.11.2026 -
Ricardo Valente SV Ried Active 101 / 107 40% 1 18.11.2026 -
Hany Mukhtar Spezia Active 142 / 122 40% 1 16.11.2026 Needs More Info
Figueiredo Alverca Active 135 / 142 40% 5 15.11.2026 Monitor
Yoane Wissa Newcastle United Active 135 / 137 40% 1 15.11.2026 -
Yanis Begraoui Estoril Praia Active 123 / 115 40% 1 15.11.2026 -
Andre Green AVS Active 115 / 125 40% 3 14.11.2026 -
Jair Silva Leiria Active 115 / 126 40% 1 13.11.2026 -
Tomané Tondela Active 109 / 91 40% 1 13.11.2026 -
Pablo Fernández Leiria Active 124 / 92 40% 2 12.11.2026 -
Mésaque Djú Portimonense Active 99 / 107 40% 1 11.11.2026 -
Chuchu Ramírez Nacional Active 139 / 114 40% 4 07.11.2026 -
Pau Víctor AVS Active 136 / 134 40% 3 06.11.2026 -
Jonathan Calleri Sport Recife Active 139 / 147 40% 5 06.11.2026 Monitor
Romelu Castagne KV Oostende Active 133 / 127 40% 2 03.11.2026 Needs More Info
Bamba Dieng Crvena Zvezda Active 123 / 116 40% 1 03.11.2026 -
Jalen Blesa Rio Ave Active 123 / 135 40% 1 02.11.2026 -
Heung-Min Son Los Angeles Football Club Active 154 / 168 40% 2 01.11.2026 -
Marezi Portsmouth Active 122 / 133 40% 1 01.11.2026 -
Miguel Falé Pacos de Ferreira Active 99 / 104 40% 1 31.10.2026 -
Sead Hakšabanović Malmo FF Active 117 / 133 40% 1 31.10.2026 -
Ianis Stoica Estrela da Amadora Active 121 / 121 40% 1 30.10.2026 -
Mohammed Bouldini Académico de Viseu Active 122 / 133 40% 4 27.10.2026 -
Joe Gelhardt Hull City Active 124 / 146 40% 1 27.10.2026 -
André Lacximicant Estoril Praia Active 113 / 96 40% 1 25.10.2026 -
Aune Heggebø West Bromwich Albion Active 128 / 126 40% 1 25.10.2026 -
Rodrigo Marquês Oliveirense Active 86 / 98 40% 1 20.10.2026 -
Manuel Ospina Cortulua Active 122 / 114 40% 1 19.10.2026 -
Rui Pedro Felgueiras Active 100 / 112 40% 1 18.10.2026 -
Fotis Ioannidis Rio Ave Active 148 / 126 40% 6 17.10.2026 -
Rodrigo Bogarín Barracas Central Active 127 / 127 40% 2 15.10.2026 -
Andrés Rentería Jaguares Active 115 / 111 40% 1 14.10.2026 -
Kévin Denkey FC Cincinnati Active 120 / 128 40% 1 12.10.2026 -
Bénie Traoré New York City Active 128 / 134 40% 2 10.10.2026 -
Dylan Nandín Arouca Active 124 / 128 40% 1 10.10.2026 -
Héctor Hernández Gil Vicente Active 114 / 116 40% 5 09.10.2026 -
Paulinho Toluca Active 150 / 146 40% 1 08.10.2026 -
Alfonso Trezza Arouca Active 121 / 129 40% 4 07.10.2026 -
Juanda Fuentes Penafiel Active 99 / 121 40% 2 07.10.2026 -
Korede Osundina Casa Pia Active 120 / 130 40% 1 07.10.2026 -
Adnan Courtois KV Oostende Active 126 / 151 40% 1 03.10.2026 -
Tiago Leite Felgueiras Active 113 / 95 40% 1 01.10.2026 -
Mandla Mahlangu Ajax Cape Town Active 103 / 112 40% 1 28.09.2026 -
Sam Surridge Nashville SC Active 126 / 133 40% 1 25.09.2026 -
Jordan Morris Seattle Sounders Active 115 / 125 40% 1 24.09.2026 -
Antoine Griezmann Orlando City Active 144 / 161 40% 2 19.09.2026 -
Antony Alonso Deportivo Riestra Active 126 / 132 40% 1 15.09.2026 -
Mo Dauda Portimonense Active 92 / 107 40% 1 15.09.2026 -
Marcus Ingvartsen San Diego Football Club Active 116 / 120 40% 1 14.09.2026 -
Lucas Moura Sport Recife Active 142 / 139 40% 3 09.09.2026 -
Maximiliano Rodríguez Huachipato Active 121 / 109 40% 1 07.09.2026 -
Jorge Meireles AVS Active 101 / 106 40% 1 07.09.2026 -
Wessam Abou Ali Columbus Crew Active 129 / 117 40% 1 06.09.2026 -
Willian José Bahia Active 130 / 123 40% 1 05.09.2026 -
Martín Ojeda Orlando City Active 131 / 113 40% 4 04.09.2026 -
Luis Muriel Junior Active 122 / 127 40% 1 04.09.2026 -
Jorge Aguirre Torreense Active 94 / 88 40% 1 03.09.2026 -
André Clovis Leiria Active 115 / 133 40% 1 03.09.2026 -
João Costa Santa Clara Active 119 / 122 40% 2 01.09.2026 -
Javier Correa Colo-Colo Active 124 / 129 40% 1 30.08.2026 -
Anthony Carter Vizela Active 99 / 114 40% 1 29.08.2026 -
Maximiliano Gómez Nacional Active 122 / 133 40% 1 28.08.2026 -
Gustavo Silva Vitoria Guimaraes Active 120 / 114 40% 1 28.08.2026 -
Arnel Jakupović Vitoria Guimaraes Active 126 / 118 40% 2 27.08.2026 -
Léo Bonatini Brondby Active 117 / 98 40% 1 27.08.2026 -
Dejan Joveljić Seattle Sounders Active 122 / 139 40% 1 23.08.2026 -
Freddy Gomez La Equidad Active 133 / 142 40% 1 22.08.2026 -
John Kennedy Fluminense Active 120 / 115 40% 1 22.08.2026 -
Gabriel Barbosa Farense Active 107 / 97 40% 1 19.08.2026 -
Roméo Beney Famalicao Active 112 / 114 40% 3 16.08.2026 -
Alexandre Duville-Parsemain Moreirense Active 108 / 121 40% 1 12.08.2026 -
Henrique Araújo Casa Pia Active 125 / 105 40% 1 12.08.2026 -
Tamble Monteiro Rio Ave Active 125 / 129 40% 2 09.08.2026 -
Jonny Arriba Cádiz Active 109 / 118 40% 1 06.08.2026 -
Bryan Róchez Chaves Active 115 / 108 40% 1 06.08.2026 -
Luciano Sport Recife Active 129 / 129 40% 1 05.08.2026 -
João Vasconcelos Santa Clara Active 97 / 98 40% 1 05.08.2026 -
Miguel Nogueira Vitoria Guimaraes Active 119 / 100 40% 1 05.08.2026 -
William Gomes Porto Active 129 / 130 40% 1 04.08.2026 -
Ricard Sánchez Estoril Praia Active 125 / 131 40% 1 01.08.2026 -
Sergi Altimira Sporting CP Active 144 / 146 40% 1 01.08.2026 -